• Join FlightAware (Why Join?)
  • Login
  • US Flag 
07:19AM EDT


 

Airport Tracker/Info


-or-


 

Live Flight TrackerFlight Track Log ✈ CSN6814 ✈ 14-Nov-2013 ✈ ZWTN / HTN - ZWWW / URC

Flight Track Log - Related Links

Times and Time Zones

All times are in EST time to prevent confusion due to time zone crossing. See the CSN6814 flight status page for this flight to view local times or setup timezone preferences in your user account.

Time Position Orientation Groundspeed Altitude Reporting Facility
EST Latitude Longitude Course Direction KTS MPH feet Rate Location/Type
10:42PM 37.1478 79.9709 38° Northeast  Level Estimated
10:43PM 37.2569 80.0772 38° Northeast  Level Estimated
10:44PM 37.3659 80.1838 38° Northeast  Level Estimated
10:45PM 37.4749 80.2907 38° Northeast  Level Estimated
10:46PM 37.5837 80.3979 38° Northeast  Level Estimated
10:47PM 37.6925 80.5055 38° Northeast  Level Estimated
10:48PM 37.8012 80.6133 38° Northeast  Level Estimated
10:49PM 37.9097 80.7215 38° Northeast  Level Estimated
10:50PM 38.0182 80.8300 38° Northeast  Level Estimated
10:51PM 38.1265 80.9388 38° Northeast  Level Estimated
10:52PM 38.2348 81.0479 38° Northeast  Level Estimated
10:53PM 38.3429 81.1574 38° Northeast  Level Estimated
10:54PM 38.4510 81.2672 38° Northeast  Level Estimated
10:55PM 38.5589 81.3773 39° Northeast  Level Estimated
10:56PM 38.6668 81.4877 39° Northeast  Level Estimated
10:57PM 38.7745 81.5985 39° Northeast  Level Estimated
10:58PM 38.8822 81.7096 39° Northeast  Level Estimated
10:59PM 38.9897 81.8211 39° Northeast  Level Estimated
11:00PM 39.0971 81.9328 39° Northeast  Level Estimated
11:01PM 39.2045 82.0450 39° Northeast  Level Estimated
11:02PM 39.3117 82.1574 39° Northeast  Level Estimated
11:03PM 39.4188 82.2703 39° Northeast  Level Estimated
11:04PM 39.5258 82.3834 39° Northeast  Level Estimated
11:05PM 39.6326 82.4969 39° Northeast  Level Estimated
11:06PM 39.7394 82.6108 39° Northeast  Level Estimated
11:07PM 39.8461 82.7250 39° Northeast  Level Estimated
11:08PM 39.9526 82.8396 39° Northeast  Level Estimated
11:09PM 40.0591 82.9545 40° Northeast  Level Estimated
11:10PM 40.1654 83.0698 40° Northeast  Level Estimated
11:11PM 40.2716 83.1854 40° Northeast  Level Estimated
11:12PM 40.3777 83.3015 40° Northeast  Level Estimated
11:13PM 40.4837 83.4178 40° Northeast  Level Estimated
11:14PM 40.5895 83.5346 40° Northeast  Level Estimated
11:15PM 40.6953 83.6517 40° Northeast  Level Estimated
11:16PM 40.8009 83.7692 40° Northeast  Level Estimated
11:17PM 40.9064 83.8871 40° Northeast  Level Estimated
11:18PM 41.0118 84.0053 40° Northeast  Level Estimated
11:19PM 41.1170 84.1239 40° Northeast  Level Estimated
11:20PM 41.2222 84.2429 40° Northeast  Level Estimated
11:21PM 41.3272 84.3623 40° Northeast  Level Estimated
11:22PM 41.4321 84.4821 41° Northeast  Level Estimated
11:23PM 41.5368 84.6022 41° Northeast  Level Estimated
11:24PM 41.6415 84.7228 41° Northeast  Level Estimated
11:25PM 41.7460 84.8437 41° Northeast  Level Estimated
11:26PM 41.8504 84.9651 41° Northeast  Level Estimated
11:27PM 41.9547 85.0868 41° Northeast  Level Estimated
11:28PM 42.0588 85.2089 41° Northeast  Level Estimated
11:29PM 42.1628 85.3315 41° Northeast  Level Estimated
11:30PM 42.2667 85.4544 41° Northeast  Level Estimated
11:31PM 42.3704 85.5777 41° Northeast  Level Estimated
11:32PM 42.4740 85.7015 41° Northeast  Level Estimated
11:33PM 42.5775 85.8256 41° Northeast  Level Estimated
11:34PM 42.6808 85.9502 42° Northeast  Level Estimated
11:35PM 42.7840 86.0752 42° Northeast  Level Estimated
11:36PM 42.8871 86.2006 42° Northeast  Level Estimated
11:37PM 42.9900 86.3264 42° Northeast  Level Estimated
11:38PM 43.0928 86.4526 42° Northeast  Level Estimated
11:39PM 43.1955 86.5793 42° Northeast  Level Estimated
11:40PM 43.2980 86.7064 42° Northeast  Level Estimated
11:41PM 43.4003 86.8339 42° Northeast  Level Estimated
11:42PM 43.5026 86.9619 42° Northeast  Level Estimated
11:43PM 43.6047 87.0902 42° Northeast  Level Estimated
11:44PM 43.7066 87.2190 42° Northeast  Level Estimated
11:45PM 43.8084 87.3483 42° Northeast  Level Estimated
11:46PM 43.9071 87.4742 43° Northeast  Level Estimated
11:47PM 43.9071 87.4742 144° Southeast  Level Estimated
11:48PM 43.9071 87.4742 144° Southeast  Level Estimated
11:49PM 43.9071 87.4742 144° Southeast  Level Estimated
11:50PM 43.9071 87.4742 144° Southeast  Level Estimated
11:51PM 43.9071 87.4742 144° Southeast  Level Estimated
11:52PM 43.9071 87.4742 144° Southeast  Level Estimated
11:53PM 43.9071 87.4742 144° Southeast  Level Estimated
11:54PM 43.9071 87.4742 144° Southeast  Level Estimated
11:55PM 43.9071 87.4742 144° Southeast  Level Estimated
11:56PM 43.9071 87.4742 144° Southeast  Level Estimated
11:57PM 43.9071 87.4742 144° Southeast  Level Estimated
11:58PM 43.9071 87.4742 144° Southeast  Level Estimated
11:59PM 43.9071 87.4742 144° Southeast  Level Estimated
12:00AM 43.9071 87.4742 144° Southeast  Level Estimated
12:01AM 43.9071 87.4742 144° Southeast  Level Estimated
12:02AM 43.9071 87.4742 144° Southeast  Level Estimated